createdAt,value
2024-02-01T00:02:18.046Z,-0.22
2024-02-01T00:04:44.752Z,-0.17
2024-02-01T00:07:11.773Z,-0.20
2024-02-01T00:09:38.577Z,-0.21
2024-02-01T00:12:05.664Z,-0.12
2024-02-01T00:14:32.391Z,-0.12
2024-02-01T00:16:59.045Z,-0.21
2024-02-01T00:19:25.756Z,-0.23
2024-02-01T00:21:52.715Z,-0.21
2024-02-01T00:24:19.447Z,-0.28
2024-02-01T00:26:46.204Z,-0.20
2024-02-01T00:29:13.027Z,-0.17
2024-02-01T00:31:39.689Z,-0.25
2024-02-01T00:34:06.578Z,-0.28
2024-02-01T00:36:33.355Z,-0.30
2024-02-01T00:39:00.105Z,-0.39
2024-02-01T00:41:27.484Z,-0.37
2024-02-01T00:43:54.169Z,-0.38
2024-02-01T00:46:20.944Z,-0.46
2024-02-01T00:48:47.753Z,-0.41
2024-02-01T00:51:14.455Z,-0.38
2024-02-01T00:53:44.247Z,-0.28
2024-02-01T00:56:10.983Z,-0.09
2024-02-01T00:58:37.630Z,-0.12
2024-02-01T01:01:04.738Z,-0.14
2024-02-01T01:03:31.551Z,-0.12
2024-02-01T01:05:58.351Z,-0.09
2024-02-01T01:08:25.346Z,-0.17
2024-02-01T01:10:51.965Z,-0.19
2024-02-01T01:13:18.675Z,-0.22
2024-02-01T01:15:45.434Z,-0.23
2024-02-01T01:18:12.892Z,-0.21
2024-02-01T01:20:39.591Z,-0.25
2024-02-01T01:23:06.508Z,-0.30
2024-02-01T01:25:33.476Z,-0.37
2024-02-01T01:28:00.197Z,-0.39
2024-02-01T01:30:26.825Z,-0.32
2024-02-01T01:32:53.569Z,-0.26
2024-02-01T01:35:20.238Z,-0.18
2024-02-01T01:37:46.982Z,-0.12
2024-02-01T01:40:13.674Z,-0.13
2024-02-01T01:42:44.904Z,-0.15
2024-02-01T01:45:11.604Z,-0.12
2024-02-01T01:47:38.929Z,-0.13
2024-02-01T01:50:07.324Z,-0.05
2024-02-01T01:52:37.441Z,0.07
2024-02-01T01:55:06.292Z,0.22
2024-02-01T01:57:33.596Z,0.30
2024-02-01T02:00:01.151Z,0.41
2024-02-01T02:02:30.880Z,0.39
2024-02-01T02:04:58.478Z,0.42
2024-02-01T02:07:25.112Z,0.51
2024-02-01T02:09:52.609Z,0.58
2024-02-01T02:12:19.581Z,0.72
2024-02-01T02:15:03.221Z,0.81
2024-02-01T02:17:31.107Z,0.92
2024-02-01T02:20:18.451Z,0.94
2024-02-01T02:22:47.115Z,0.91
2024-02-01T02:25:15.080Z,0.90
2024-02-01T02:27:43.056Z,1.02
2024-02-01T02:30:13.288Z,1.09
2024-02-01T02:32:40.758Z,1.13
2024-02-01T02:35:15.526Z,1.21
2024-02-01T02:37:50.046Z,1.24
2024-02-01T02:40:21.654Z,1.27
2024-02-01T02:42:48.656Z,1.38
2024-02-01T02:45:16.163Z,1.37
2024-02-01T02:47:43.287Z,1.36
2024-02-01T02:50:10.349Z,1.35
2024-02-01T02:52:39.198Z,1.30
2024-02-01T02:55:07.289Z,1.28
2024-02-01T02:57:35.244Z,1.25
2024-02-01T03:00:06.691Z,1.27
2024-02-01T03:02:34.097Z,1.32
2024-02-01T03:05:02.599Z,1.31
2024-02-01T03:07:29.962Z,1.38
2024-02-01T03:09:57.023Z,1.44
2024-02-01T03:12:23.871Z,1.53
2024-02-01T03:14:51.883Z,1.69
2024-02-01T03:17:20.067Z,1.82
2024-02-01T03:19:52.236Z,2.01
2024-02-01T03:22:22.189Z,2.23
2024-02-01T03:24:59.669Z,2.41
2024-02-01T03:27:26.567Z,2.55
2024-02-01T03:29:53.195Z,2.64
2024-02-01T03:32:20.717Z,2.73
2024-02-01T03:34:47.557Z,2.85
2024-02-01T03:37:16.215Z,2.95
2024-02-01T03:39:43.294Z,3.01
2024-02-01T03:42:10.410Z,3.09
2024-02-01T03:44:41.474Z,3.15
2024-02-01T03:47:11.013Z,3.26
2024-02-01T03:49:40.740Z,3.34
2024-02-01T03:52:10.644Z,3.43
2024-02-01T03:54:38.947Z,3.57
2024-02-01T03:57:06.631Z,3.62
2024-02-01T03:59:33.796Z,3.65
2024-02-01T04:02:05.556Z,3.69
2024-02-01T04:04:32.718Z,3.64
2024-02-01T04:07:00.026Z,3.61
2024-02-01T04:09:26.915Z,3.57
2024-02-01T04:11:55.958Z,3.64
2024-02-01T04:14:22.801Z,3.70
2024-02-01T04:16:49.504Z,3.70
2024-02-01T04:19:16.313Z,3.63
2024-02-01T04:21:47.620Z,3.59
2024-02-01T04:24:14.564Z,3.57
2024-02-01T04:26:41.345Z,3.60
2024-02-01T04:29:11.217Z,3.61
2024-02-01T04:31:38.210Z,3.63
2024-02-01T04:34:05.357Z,3.61
2024-02-01T04:36:32.297Z,3.62
2024-02-01T04:38:59.101Z,3.64
2024-02-01T04:41:26.082Z,3.64
2024-02-01T04:43:52.829Z,3.64
2024-02-01T04:46:19.896Z,3.60
2024-02-01T04:48:46.773Z,3.59
2024-02-01T04:51:13.512Z,3.62
2024-02-01T04:53:40.233Z,3.59
2024-02-01T04:56:09.277Z,3.53
2024-02-01T04:58:35.996Z,3.47
2024-02-01T05:01:11.372Z,3.49
2024-02-01T05:03:39.316Z,3.53
2024-02-01T05:06:09.216Z,3.48
2024-02-01T05:08:36.370Z,3.49
2024-02-01T05:11:03.126Z,3.45
2024-02-01T05:13:31.616Z,3.43
2024-02-01T05:15:59.932Z,3.42
2024-02-01T05:18:28.801Z,3.45
2024-02-01T05:20:56.127Z,3.45
2024-02-01T05:23:23.014Z,3.39
2024-02-01T05:25:49.677Z,3.38
2024-02-01T05:28:16.337Z,3.35
2024-02-01T05:30:45.843Z,3.37
2024-02-01T05:33:12.813Z,3.38
2024-02-01T05:35:39.862Z,3.37
2024-02-01T05:38:09.487Z,3.34
2024-02-01T05:40:38.518Z,3.34
2024-02-01T05:43:05.952Z,3.33
2024-02-01T05:45:35.215Z,3.32
2024-02-01T05:48:02.235Z,3.36
2024-02-01T05:50:29.459Z,3.38
2024-02-01T05:52:56.826Z,3.38
2024-02-01T05:55:23.678Z,3.39
2024-02-01T05:57:50.339Z,3.42
2024-02-01T06:00:23.859Z,3.44
2024-02-01T06:02:51.652Z,3.45
2024-02-01T06:05:21.782Z,3.49
2024-02-01T06:07:48.713Z,3.50
2024-02-01T06:10:15.499Z,3.49
2024-02-01T06:12:42.207Z,3.46
2024-02-01T06:15:12.547Z,3.47
2024-02-01T06:17:39.631Z,3.46
2024-02-01T06:20:07.226Z,3.49
2024-02-01T06:22:34.129Z,3.48
2024-02-01T06:25:00.753Z,3.51
2024-02-01T06:27:27.527Z,3.57
2024-02-01T06:29:54.229Z,3.60
2024-02-01T06:32:22.377Z,3.67
2024-02-01T06:34:59.638Z,3.73
2024-02-01T06:37:31.174Z,3.76
2024-02-01T06:40:17.909Z,3.77
2024-02-01T06:43:09.942Z,3.76
2024-02-01T06:45:49.010Z,3.74
2024-02-01T06:48:16.148Z,3.75
2024-02-01T06:51:03.183Z,3.80
2024-02-01T06:53:38.462Z,3.85
2024-02-01T06:56:09.102Z,3.88
2024-02-01T06:58:49.930Z,3.91
2024-02-01T07:01:26.088Z,4.02
2024-02-01T07:03:58.811Z,4.07
2024-02-01T07:09:18.558Z,4.09
2024-02-01T07:12:01.528Z,4.10
2024-02-01T07:14:38.364Z,4.15
2024-02-01T07:17:28.074Z,4.15
2024-02-01T07:19:57.660Z,4.21
2024-02-01T07:22:40.996Z,4.21
2024-02-01T07:25:12.364Z,4.19
2024-02-01T07:27:58.183Z,4.18
2024-02-01T07:30:43.703Z,4.18
2024-02-01T07:33:28.928Z,4.15
2024-02-01T07:36:14.288Z,4.16
2024-02-01T07:38:59.856Z,4.16
2024-02-01T07:41:45.106Z,4.18
2024-02-01T07:44:30.216Z,4.16
2024-02-01T07:47:15.744Z,4.18
2024-02-01T07:50:01.245Z,4.18
2024-02-01T07:52:47.133Z,4.20
2024-02-01T07:55:32.207Z,4.21
2024-02-01T07:58:09.088Z,4.21
2024-02-01T08:00:36.773Z,4.20
2024-02-01T08:03:06.105Z,4.20
2024-02-01T08:05:52.234Z,4.18
2024-02-01T08:08:18.995Z,4.20
2024-02-01T08:10:46.568Z,4.18
2024-02-01T08:13:16.744Z,4.22
2024-02-01T08:15:43.900Z,4.24
2024-02-01T08:18:11.466Z,4.25
2024-02-01T08:20:42.017Z,4.24
2024-02-01T08:23:09.881Z,4.23
2024-02-01T08:25:41.817Z,4.25
2024-02-01T08:28:12.083Z,4.24
2024-02-01T08:30:39.235Z,4.23
2024-02-01T08:33:06.280Z,4.28
2024-02-01T08:35:36.194Z,4.28
2024-02-01T08:38:04.284Z,4.29
2024-02-01T08:40:31.721Z,4.31
2024-02-01T08:43:02.557Z,4.31
2024-02-01T08:45:30.829Z,4.31
2024-02-01T08:48:02.313Z,4.34
2024-02-01T08:50:36.783Z,4.35
2024-02-01T08:53:03.743Z,4.37
2024-02-01T08:55:32.057Z,4.42
2024-02-01T08:58:09.770Z,4.46
2024-02-01T09:00:37.674Z,4.48
2024-02-01T09:03:12.499Z,4.53
2024-02-01T09:05:41.129Z,4.58
2024-02-01T09:08:10.366Z,4.61
2024-02-01T09:10:37.066Z,4.62
2024-02-01T09:13:04.006Z,4.66
2024-02-01T09:15:34.391Z,4.65
2024-02-01T09:18:01.334Z,4.65
2024-02-01T09:20:28.572Z,4.62
2024-02-01T09:22:57.556Z,4.61
2024-02-01T09:25:26.495Z,4.63
2024-02-01T09:27:54.523Z,4.66
2024-02-01T09:30:27.417Z,4.70
2024-02-01T09:32:57.644Z,4.74
2024-02-01T09:35:25.219Z,4.75
2024-02-01T09:37:54.606Z,4.77
2024-02-01T09:40:22.659Z,4.79
2024-02-01T09:42:50.736Z,4.75
2024-02-01T09:45:22.141Z,4.75
2024-02-01T09:47:49.644Z,4.82
2024-02-01T09:50:22.631Z,4.78
2024-02-01T09:52:51.966Z,4.80
2024-02-01T09:55:21.270Z,4.82
2024-02-01T09:57:49.816Z,4.86
2024-02-01T10:00:23.577Z,4.86
2024-02-01T10:02:55.536Z,4.92
2024-02-01T10:05:24.213Z,5.10
2024-02-01T10:08:00.693Z,5.20
2024-02-01T10:10:27.596Z,5.19
2024-02-01T10:12:59.758Z,5.23
2024-02-01T10:15:31.595Z,5.24
2024-02-01T10:17:59.619Z,5.26
2024-02-01T10:20:36.807Z,5.26
2024-02-01T10:23:08.116Z,5.32
2024-02-01T10:25:40.092Z,5.59
2024-02-01T10:28:12.991Z,5.78
2024-02-01T10:30:42.931Z,5.90
2024-02-01T10:33:15.511Z,5.75
2024-02-01T10:35:43.946Z,5.65
2024-02-01T10:38:14.772Z,5.85
2024-02-01T10:40:54.716Z,6.09
2024-02-01T10:43:25.190Z,6.09
2024-02-01T10:46:06.793Z,5.87
2024-02-01T10:48:53.848Z,5.72
2024-02-01T10:51:21.740Z,6.12
2024-02-01T10:53:49.077Z,6.03
2024-02-01T10:56:17.988Z,5.78
2024-02-01T10:58:55.128Z,5.68
2024-02-01T11:01:26.701Z,5.67
2024-02-01T11:03:57.773Z,5.98
2024-02-01T11:06:26.680Z,6.48
2024-02-01T11:08:55.793Z,7.16
2024-02-01T11:11:33.881Z,7.42
2024-02-01T11:14:07.991Z,7.28
2024-02-01T11:16:54.970Z,7.27
2024-02-01T11:19:26.967Z,7.06
2024-02-01T11:21:56.465Z,7.73
2024-02-01T11:24:28.031Z,8.19
2024-02-01T11:26:56.805Z,9.37
2024-02-01T11:29:25.812Z,10.74
2024-02-01T11:32:04.187Z,11.35
2024-02-01T11:34:34.661Z,12.19
2024-02-01T11:37:03.003Z,13.20
2024-02-01T11:39:29.714Z,12.21
2024-02-01T11:41:58.347Z,12.84
2024-02-01T11:44:25.575Z,12.44
2024-02-01T11:46:55.856Z,11.37
2024-02-01T11:49:28.086Z,12.18
2024-02-01T11:52:04.085Z,13.07
2024-02-01T11:54:30.986Z,12.08
2024-02-01T11:56:57.692Z,11.43
2024-02-01T11:59:27.099Z,10.85
2024-02-01T12:01:54.394Z,9.70
2024-02-01T12:04:22.483Z,8.95
2024-02-01T12:06:50.114Z,8.67
2024-02-01T12:09:16.900Z,8.45
2024-02-01T12:11:45.388Z,7.90
2024-02-01T12:14:22.298Z,7.77
2024-02-01T12:16:55.017Z,7.95
2024-02-01T12:19:29.208Z,8.11
2024-02-01T12:21:56.616Z,8.41
2024-02-01T12:24:28.112Z,8.54
2024-02-01T12:26:55.553Z,8.73
2024-02-01T12:29:23.354Z,8.58
2024-02-01T12:31:52.185Z,8.43
2024-02-01T12:34:22.025Z,7.96
2024-02-01T12:36:49.892Z,7.39
2024-02-01T12:39:17.370Z,7.35
2024-02-01T12:41:46.904Z,7.13
2024-02-01T12:44:15.293Z,7.00
2024-02-01T12:46:46.463Z,6.93
2024-02-01T12:49:14.699Z,6.87
2024-02-01T12:51:43.330Z,6.86
2024-02-01T12:54:11.033Z,6.84
2024-02-01T12:56:40.055Z,6.77
2024-02-01T12:59:11.217Z,6.64
2024-02-01T13:01:42.741Z,6.65
2024-02-01T13:04:10.035Z,6.63
2024-02-01T13:06:37.144Z,6.60
2024-02-01T13:09:04.304Z,6.51
2024-02-01T13:11:31.570Z,6.47
2024-02-01T13:13:59.364Z,6.49
2024-02-01T13:16:27.409Z,6.48
2024-02-01T13:18:57.403Z,6.44
2024-02-01T13:21:24.820Z,6.44
2024-02-01T13:23:52.592Z,6.45
2024-02-01T13:26:19.381Z,6.39
2024-02-01T13:28:47.310Z,6.39
2024-02-01T13:31:14.239Z,6.32
2024-02-01T13:33:42.034Z,6.32
2024-02-01T13:36:10.545Z,6.34
2024-02-01T13:38:37.578Z,6.32
2024-02-01T13:41:05.540Z,6.30
2024-02-01T13:43:32.674Z,6.29
2024-02-01T13:45:59.356Z,6.27
2024-02-01T13:51:14.727Z,6.19
2024-02-01T13:53:41.423Z,6.14
2024-02-01T13:56:09.779Z,6.13
2024-02-01T13:58:36.565Z,6.07
2024-02-01T14:01:03.689Z,6.03
2024-02-01T14:03:31.485Z,6.04
2024-02-01T14:05:58.749Z,6.05
2024-02-01T14:08:26.145Z,5.99
2024-02-01T14:10:54.975Z,5.94
2024-02-01T14:13:21.966Z,5.91
2024-02-01T14:15:48.749Z,5.87
2024-02-01T14:18:15.459Z,5.81
2024-02-01T14:20:42.331Z,5.86
2024-02-01T14:23:09.044Z,5.81
2024-02-01T14:25:35.842Z,5.77
2024-02-01T14:28:02.574Z,5.75
2024-02-01T14:30:29.404Z,5.78
2024-02-01T14:32:56.312Z,5.74
2024-02-01T14:35:23.675Z,5.69
2024-02-01T14:37:50.419Z,5.65
2024-02-01T14:40:17.129Z,5.57
2024-02-01T14:42:44.064Z,5.54
2024-02-01T14:45:11.082Z,5.58
2024-02-01T14:47:38.494Z,5.61
2024-02-01T14:50:06.416Z,5.60
2024-02-01T14:52:33.308Z,5.56
2024-02-01T14:55:00.271Z,5.56
2024-02-01T14:57:27.100Z,5.48
2024-02-01T14:59:53.840Z,5.45
2024-02-01T15:02:20.552Z,5.41
2024-02-01T15:04:47.282Z,5.42
2024-02-01T15:07:13.968Z,5.36
2024-02-01T15:09:41.142Z,5.30
2024-02-01T15:12:08.082Z,5.22
2024-02-01T15:14:36.591Z,5.14
2024-02-01T15:17:07.414Z,5.10
2024-02-01T15:19:34.590Z,5.05
2024-02-01T15:22:04.001Z,4.98
2024-02-01T15:24:31.073Z,5.02
2024-02-01T15:26:58.184Z,4.99
2024-02-01T15:29:25.280Z,4.91
2024-02-01T15:31:52.959Z,4.86
2024-02-01T15:34:20.286Z,4.90
2024-02-01T15:36:47.128Z,4.84
2024-02-01T15:39:17.944Z,4.84
2024-02-01T15:41:45.413Z,4.83
2024-02-01T15:44:12.969Z,4.76
2024-02-01T15:46:40.049Z,4.69
2024-02-01T15:49:08.831Z,4.63
2024-02-01T15:51:36.041Z,4.56
2024-02-01T15:54:03.264Z,4.47
2024-02-01T15:56:29.988Z,4.47
2024-02-01T15:58:56.670Z,4.45
2024-02-01T16:01:23.454Z,4.42
2024-02-01T16:03:50.279Z,4.42
2024-02-01T16:06:19.255Z,4.34
2024-02-01T16:08:52.731Z,4.28
2024-02-01T16:11:21.608Z,4.23
2024-02-01T16:13:58.039Z,4.17
2024-02-01T16:16:37.053Z,4.09
2024-02-01T16:19:05.778Z,4.01
2024-02-01T16:21:33.697Z,3.98
2024-02-01T16:24:05.677Z,4.02
2024-02-01T16:26:32.961Z,4.00
2024-02-01T16:29:00.473Z,3.96
2024-02-01T16:31:27.624Z,3.94
2024-02-01T16:34:17.233Z,3.97
2024-02-01T16:36:55.068Z,3.94
2024-02-01T16:39:33.735Z,3.89
2024-02-01T16:42:22.461Z,3.82
2024-02-01T16:44:53.416Z,3.78
2024-02-01T16:47:51.202Z,3.76
2024-02-01T16:50:31.814Z,3.69
2024-02-01T16:53:02.942Z,3.61
2024-02-01T16:55:44.542Z,3.62
2024-02-01T16:58:32.968Z,3.59
2024-02-01T17:00:59.839Z,3.57
2024-02-01T17:03:28.479Z,3.58
2024-02-01T17:05:57.736Z,3.56
2024-02-01T17:08:41.484Z,3.56
2024-02-01T17:11:08.956Z,3.56
2024-02-01T17:13:35.724Z,3.50
2024-02-01T17:16:03.564Z,3.44
2024-02-01T17:18:34.418Z,3.43
2024-02-01T17:21:05.442Z,3.44
2024-02-01T17:23:32.289Z,3.39
2024-02-01T17:26:07.704Z,3.34
2024-02-01T17:28:38.456Z,3.36
2024-02-01T17:31:15.029Z,3.30
2024-02-01T17:33:50.093Z,3.24
2024-02-01T17:36:18.476Z,3.17
2024-02-01T17:38:52.578Z,3.15
2024-02-01T17:41:22.884Z,3.21
2024-02-01T17:43:49.804Z,3.28
2024-02-01T17:46:31.772Z,3.35
2024-02-01T17:49:03.220Z,3.46
2024-02-01T17:51:34.364Z,3.53
2024-02-01T17:54:02.277Z,3.61
2024-02-01T17:56:35.920Z,3.62
2024-02-01T17:59:04.718Z,3.68
2024-02-01T18:01:36.777Z,3.72
2024-02-01T18:04:32.231Z,3.80
2024-02-01T18:07:02.021Z,3.81
2024-02-01T18:09:38.290Z,3.83
2024-02-01T18:12:09.497Z,3.80
2024-02-01T18:14:36.364Z,3.81
2024-02-01T18:17:04.846Z,3.81
2024-02-01T18:19:32.950Z,3.81
2024-02-01T18:22:00.500Z,3.80
2024-02-01T18:24:31.146Z,3.83
2024-02-01T18:26:58.270Z,3.82
2024-02-01T18:30:03.390Z,3.84
2024-02-01T18:32:32.535Z,3.88
2024-02-01T18:35:00.559Z,3.85
2024-02-01T18:37:31.647Z,3.84
2024-02-01T18:39:58.553Z,3.79
2024-02-01T18:42:30.290Z,3.80
2024-02-01T18:44:57.046Z,3.81
2024-02-01T18:47:31.355Z,3.83
2024-02-01T18:50:00.205Z,3.85
2024-02-01T18:52:27.528Z,3.86
2024-02-01T18:54:54.919Z,3.81
2024-02-01T18:57:34.792Z,3.77
2024-02-01T19:00:05.504Z,3.73
2024-02-01T19:02:52.962Z,3.74
2024-02-01T19:05:20.209Z,3.68
2024-02-01T19:07:55.827Z,3.68
2024-02-01T19:10:38.846Z,3.66
2024-02-01T19:13:19.039Z,3.62
2024-02-01T19:15:50.724Z,3.65
2024-02-01T19:18:19.104Z,3.66
2024-02-01T19:20:47.299Z,3.66
2024-02-01T19:23:19.575Z,3.67
2024-02-01T19:25:47.178Z,3.69
2024-02-01T19:28:37.070Z,3.77
2024-02-01T19:31:03.995Z,3.79
2024-02-01T19:33:31.611Z,3.75
2024-02-01T19:35:58.653Z,3.77
2024-02-01T19:38:26.034Z,3.77
2024-02-01T19:40:54.537Z,3.72
2024-02-01T19:43:22.938Z,3.69
2024-02-01T19:45:49.792Z,3.63
2024-02-01T19:48:16.951Z,3.62
2024-02-01T19:50:43.884Z,3.63
2024-02-01T19:53:11.348Z,3.70
2024-02-01T19:55:37.986Z,3.70
2024-02-01T19:58:04.958Z,3.74
2024-02-01T20:00:31.825Z,3.76
2024-02-01T20:02:58.748Z,3.79
2024-02-01T20:05:25.516Z,3.79
2024-02-01T20:07:52.288Z,3.76
2024-02-01T20:10:19.024Z,3.78
2024-02-01T20:12:46.725Z,3.82
2024-02-01T20:15:13.613Z,3.82
2024-02-01T20:17:40.434Z,3.85
2024-02-01T20:20:27.626Z,3.82
2024-02-01T20:22:54.521Z,3.85
2024-02-01T20:25:25.852Z,3.79
2024-02-01T20:28:00.709Z,3.74
2024-02-01T20:30:29.624Z,3.75
2024-02-01T20:32:59.093Z,3.80
2024-02-01T20:35:26.204Z,3.78
2024-02-01T20:37:55.922Z,3.79
2024-02-01T20:40:34.505Z,3.77
2024-02-01T20:43:01.457Z,3.78
2024-02-01T20:45:29.933Z,3.76
2024-02-01T20:47:57.448Z,3.77
2024-02-01T20:50:36.342Z,3.76
2024-02-01T20:53:37.588Z,3.79
2024-02-01T20:56:05.342Z,3.80
2024-02-01T20:58:51.578Z,3.82
2024-02-01T21:01:20.305Z,3.80
2024-02-01T21:03:47.210Z,3.79
2024-02-01T21:06:14.103Z,3.80
2024-02-01T21:08:42.713Z,3.83
2024-02-01T21:11:37.809Z,3.84
2024-02-01T21:14:19.116Z,3.84
2024-02-01T21:16:53.446Z,3.87
2024-02-01T21:19:21.550Z,3.87
2024-02-01T21:21:48.778Z,3.85
2024-02-01T21:24:16.648Z,3.87
2024-02-01T21:26:44.311Z,3.88
2024-02-01T21:29:18.618Z,3.89
2024-02-01T21:31:49.806Z,3.85
2024-02-01T21:34:22.398Z,3.82
2024-02-01T21:37:06.421Z,3.81
2024-02-01T21:39:49.818Z,3.78
2024-02-01T21:42:48.625Z,3.77
2024-02-01T21:45:23.224Z,3.77
2024-02-01T21:47:51.822Z,3.74
2024-02-01T21:50:21.625Z,3.73
2024-02-01T21:52:48.488Z,3.73
2024-02-01T21:55:15.426Z,3.71
2024-02-01T21:57:42.454Z,3.65
2024-02-01T22:00:11.941Z,3.60
2024-02-01T22:02:39.251Z,3.55
2024-02-01T22:05:06.421Z,3.56
2024-02-01T22:07:33.565Z,3.51
2024-02-01T22:10:00.464Z,3.50
2024-02-01T22:12:27.352Z,3.48
2024-02-01T22:14:56.462Z,3.47
2024-02-01T22:17:24.217Z,3.47
2024-02-01T22:19:50.987Z,3.48
2024-02-01T22:22:17.798Z,3.50
2024-02-01T22:24:45.715Z,3.52
2024-02-01T22:27:15.409Z,3.53
2024-02-01T22:29:42.210Z,3.55
2024-02-01T22:32:09.008Z,3.55
2024-02-01T22:34:36.213Z,3.51
2024-02-01T22:37:03.079Z,3.52
2024-02-01T22:39:30.230Z,3.50
2024-02-01T22:41:57.095Z,3.48
2024-02-01T22:44:24.069Z,3.46
2024-02-01T22:46:50.756Z,3.47
2024-02-01T22:49:17.693Z,3.45
2024-02-01T22:51:44.457Z,3.45
2024-02-01T22:54:11.215Z,3.42
2024-02-01T22:56:37.966Z,3.42
2024-02-01T22:59:04.768Z,3.43
2024-02-01T23:01:31.625Z,3.42
2024-02-01T23:03:58.734Z,3.42
2024-02-01T23:06:25.737Z,3.37
2024-02-01T23:08:52.514Z,3.36
2024-02-01T23:11:19.230Z,3.38
2024-02-01T23:13:46.084Z,3.38
2024-02-01T23:16:13.520Z,3.38
2024-02-01T23:18:40.932Z,3.37
2024-02-01T23:21:07.999Z,3.36
2024-02-01T23:23:35.183Z,3.33
2024-02-01T23:26:01.974Z,3.34
2024-02-01T23:28:29.020Z,3.33
2024-02-01T23:30:55.734Z,3.30
2024-02-01T23:33:23.026Z,3.27
2024-02-01T23:35:49.945Z,3.29
2024-02-01T23:38:16.822Z,3.31
2024-02-01T23:40:43.705Z,3.28
2024-02-01T23:43:10.596Z,3.23
2024-02-01T23:45:37.363Z,3.20
2024-02-01T23:48:04.813Z,3.24
2024-02-01T23:50:31.671Z,3.22
2024-02-01T23:52:58.423Z,3.24
2024-02-01T23:55:25.087Z,3.25
2024-02-01T23:57:51.866Z,3.25
